Oquinn, Texas
Current Conditions -  °F | °C
As of 1:55 PM on Saturday 25 Oct 2014 (Local Time) from K3T5 Reporting Station
Clear Clear  
Wind Chill: 85°   Ceiling: Unl
Heat Index: 86°   Visibility: 10mi
Dew Point: 62°   Wind: 3mph
Humidity: 46%   Direction: 200°SSW
Pressure: 30.11"   Gusts: NA
Location:  29.8569°N, 96.9311°W
Report Text: K3T5 251855Z AUTO 20003KT 10SM CLR 30/17 A3011 RMK AO2 T02950166
Loading
Personal Weather Stations






























Interactive Weather Map
Tropical Storm Tracking
New forecast layout! Learn more

10-Day Weather Forecast

Advertisements
Track Severe Weather on mobile